Fairchild Air Force Base
KSKA : now visible

Airfield :











YOU CAN JOIN US ON...

 
LOGIN :

Register | Disclaimer

   EN    FR    IT 

 









Legend :    VFR   Marginal VFR   IFR   Intensive IFR   Very Intensive IFR
Visi :
Ceiling :
>= 8 km
>= 3000ft
5 to 8 km
1000 to 3000 ft
1500m to 5 km
500 to 1000 ft
800 to 1500m
200 to 500 ft
< 800m
< 200 ft
Symbols :   Thunderstorms  Fog  Heavy snow  Heavy precipitations  Wind > 20 kt






- Airport Elevation : 2461 ft


KSKA - Fairchild Air Force Base

CURRENT METAR :
  • 010158Z 23007KT 10SM SCT050 SCT100 02/00 A2986 RMK AO2A SLP133 T00230000 $

EXPIRED METARs :
  • 010058Z 24011KT 10SM CLR 04/00 A2985 RMK AO2A SLP128 T00371005 $
  • 312358Z 25008KT 10SM FEW095 03/03 A2984 RMK AO2A SNE21 SLP125 P0000 60001 T00290026 10066 20007 50013 $

TAF TAF KSKA
Valid from the 31 at 19:00 until the 02 at 01:00 UTC


311900Z 3119/0201 22012KT 9000 -SHRASN FEW020 BKN030 BKN070 610309 QNH2981INS
BECMG 3120/3121 22012G18KT 9999 VCSH FEW030 BKN045 610459 QNH2981INS
BECMG 0100/0101 21009KT 9999 NSW SCT050 BKN100 QNH2982INS
BECMG 0109/0110 19009KT 4800 -SN BR BKN008 OVC015 620089 QNH2986INS
BECMG 0117/0118 06009KT 9999 VCSH FEW015 BKN020 BKN050 620209 QNH2991INS TX06/0100Z TNM01/0113Z



MET'MAP, your aeronautical weather chart ! - Copyright ORBIFLY December 2007 - Disclaimer

ORBIFLY MET'MAP TEAM :

Programming & Development : Alexandra Zaïnal
Concept & original design : Baudouin d'Aumeries
Assistance for programming : Marc-Olivier Méhu
Technical & hardware support : Manuel Goepfert

Contact : metmap@orbifly.com




SOURCES & CREDITS :

   NOAA       Earth
Advisory